Kitsissut

KL  EN  DA
ASIAQ
Weather Now GREENLAND SURVEY
Updated [WGT/WGST] Temperature [°C] Wind [m/s] Air pressure [hPa] Relative humidity [%] Precipitation [mm]
Present Wind chill Speed Max
25.02 08:00n/an/an/an/an/an/an/a
25.02 07:00-18,7-26,83,6 ⇑5,1101853n/a
25.02 06:00-18,6-27,84,6 ⇑5,7101759n/a
25.02 05:00-18,7-26,13,1 ⇑4,1101761n/a
25.02 04:00-19,0-24,82,1 ⇑3,1101762n/a
25.02 03:00-18,8-24,62,1 ⇖3,1101667n/a
25.02 02:00-18,8-24,62,1 ⇑2,6101665n/a
25.02 01:00-18,9-25,62,6 ⇑3,6101566n/a
25.02 00:00-18,6-25,22,6 ⇖3,6101565n/a
24.02 23:00-18,5-25,12,6 ⇖3,6101470n/a
24.02 22:00-18,40,01,0 ⇐1,5101468n/a
24.02 21:00-18,80,00,5 ⇗1,0101376n/a
24.02 20:00-18,80,00,5 ⇓1,0101269n/a
24.02 19:00-18,5-22,81,5 ⇒2,6101166n/a
24.02 18:00-18,8-24,62,1 ⇒3,6101179n/a
24.02 17:00-18,6-24,32,1 ⇙3,1101081n/a
24.02 16:00-18,00,00,5 ⇑1,0100976n/a
24.02 15:00-18,4-25,73,1 ⇘3,6100965n/a
24.02 14:00-17,8-22,01,5 ⇙2,1100861n/a
24.02 13:00-18,0-22,31,5 ⇓2,6100765n/a
24.02 12:00-16,7-27,57,2 ⇘10,8100775n/a
24.02 11:00-17,0-29,49,8 ⇘14,4100675n/a
24.02 10:00-16,4-28,49,3 ⇘12,4100658n/a
24.02 09:00-16,3-29,010,8 ⇘14,4100558n/a
24.02 08:00-16,4-28,49,3 ⇓12,4100559n/a
Position: (76.73333333,-73.12083333)

[Back]